sensor_id;sensor_type;location;lat;lon;timestamp;P1;durP1;ratioP1;P2;durP2;ratioP2
3101;SDS011;1561;42.666;23.392;2022-10-18T00:00:13;6.97;;;5.60;;
3101;SDS011;1561;42.666;23.392;2022-10-18T00:02:40;7.97;;;4.73;;
3101;SDS011;1561;42.666;23.392;2022-10-18T00:05:08;7.27;;;5.53;;
3101;SDS011;1561;42.666;23.392;2022-10-18T00:07:35;6.80;;;5.47;;
3101;SDS011;1561;42.666;23.392;2022-10-18T00:10:02;8.67;;;6.40;;
3101;SDS011;1561;42.666;23.392;2022-10-18T00:12:31;10.27;;;7.03;;
3101;SDS011;1561;42.666;23.392;2022-10-18T00:14:58;16.33;;;7.00;;
3101;SDS011;1561;42.666;23.392;2022-10-18T00:17:25;6.87;;;6.17;;
3101;SDS011;1561;42.666;23.392;2022-10-18T00:19:52;11.13;;;7.50;;
3101;SDS011;1561;42.666;23.392;2022-10-18T00:22:20;11.60;;;7.60;;
3101;SDS011;1561;42.666;23.392;2022-10-18T00:24:47;9.50;;;6.97;;
3101;SDS011;1561;42.666;23.392;2022-10-18T00:27:14;9.93;;;7.97;;
3101;SDS011;1561;42.666;23.392;2022-10-18T00:29:40;11.77;;;7.90;;
3101;SDS011;1561;42.666;23.392;2022-10-18T00:32:08;14.47;;;8.77;;
3101;SDS011;1561;42.666;23.392;2022-10-18T00:34:36;14.20;;;8.03;;
3101;SDS011;1561;42.666;23.392;2022-10-18T00:37:03;7.97;;;6.80;;
3101;SDS011;1561;42.666;23.392;2022-10-18T00:39:31;5.17;;;4.70;;
3101;SDS011;1561;42.666;23.392;2022-10-18T00:41:58;7.53;;;6.10;;
3101;SDS011;1561;42.666;23.392;2022-10-18T00:47:25;7.70;;;6.70;;
3101;SDS011;1561;42.666;23.392;2022-10-18T00:49:53;13.80;;;6.20;;
3101;SDS011;1561;42.666;23.392;2022-10-18T00:52:26;8.43;;;6.67;;
3101;SDS011;1561;42.666;23.392;2022-10-18T00:54:57;9.50;;;7.50;;
3101;SDS011;1561;42.666;23.392;2022-10-18T00:57:25;9.73;;;7.47;;
3101;SDS011;1561;42.666;23.392;2022-10-18T00:59:52;9.23;;;6.57;;
3101;SDS011;1561;42.666;23.392;2022-10-18T01:02:19;9.97;;;6.77;;
3101;SDS011;1561;42.666;23.392;2022-10-18T01:04:47;8.00;;;6.63;;
3101;SDS011;1561;42.666;23.392;2022-10-18T01:07:18;12.67;;;8.50;;
3101;SDS011;1561;42.666;23.392;2022-10-18T01:09:59;13.80;;;9.90;;
3101;SDS011;1561;42.666;23.392;2022-10-18T01:12:36;16.03;;;10.77;;
3101;SDS011;1561;42.666;23.392;2022-10-18T01:15:11;17.00;;;11.90;;
3101;SDS011;1561;42.666;23.392;2022-10-18T01:17:48;17.83;;;12.27;;
3101;SDS011;1561;42.666;23.392;2022-10-18T01:20:32;17.53;;;12.57;;
3101;SDS011;1561;42.666;23.392;2022-10-18T01:23:14;21.60;;;13.80;;
3101;SDS011;1561;42.666;23.392;2022-10-18T01:25:56;17.20;;;12.10;;
3101;SDS011;1561;42.666;23.392;2022-10-18T01:28:46;19.13;;;12.30;;
3101;SDS011;1561;42.666;23.392;2022-10-18T01:31:21;18.17;;;11.63;;
3101;SDS011;1561;42.666;23.392;2022-10-18T01:33:51;18.10;;;12.20;;
3101;SDS011;1561;42.666;23.392;2022-10-18T01:36:24;16.30;;;12.00;;
3101;SDS011;1561;42.666;23.392;2022-10-18T01:38:55;17.97;;;11.03;;
3101;SDS011;1561;42.666;23.392;2022-10-18T01:41:24;18.77;;;12.83;;
3101;SDS011;1561;42.666;23.392;2022-10-18T01:43:56;22.27;;;12.63;;
3101;SDS011;1561;42.666;23.392;2022-10-18T01:46:26;18.20;;;13.73;;
3101;SDS011;1561;42.666;23.392;2022-10-18T01:48:54;16.10;;;9.17;;
3101;SDS011;1561;42.666;23.392;2022-10-18T01:51:22;11.80;;;8.97;;
3101;SDS011;1561;42.666;23.392;2022-10-18T01:53:51;7.10;;;6.00;;
3101;SDS011;1561;42.666;23.392;2022-10-18T01:56:20;8.63;;;6.10;;
3101;SDS011;1561;42.666;23.392;2022-10-18T01:59:04;8.30;;;5.50;;
3101;SDS011;1561;42.666;23.392;2022-10-18T02:01:43;8.67;;;5.90;;
3101;SDS011;1561;42.666;23.392;2022-10-18T02:04:21;8.10;;;6.17;;
3101;SDS011;1561;42.666;23.392;2022-10-18T02:06:56;10.60;;;6.03;;
3101;SDS011;1561;42.666;23.392;2022-10-18T02:09:32;8.30;;;6.10;;
3101;SDS011;1561;42.666;23.392;2022-10-18T02:12:04;7.17;;;5.80;;
3101;SDS011;1561;42.666;23.392;2022-10-18T02:14:35;7.33;;;6.43;;
3101;SDS011;1561;42.666;23.392;2022-10-18T02:17:06;8.57;;;6.20;;
3101;SDS011;1561;42.666;23.392;2022-10-18T02:19:36;9.27;;;6.20;;
3101;SDS011;1561;42.666;23.392;2022-10-18T02:22:05;9.90;;;6.13;;
3101;SDS011;1561;42.666;23.392;2022-10-18T02:24:34;10.00;;;6.40;;
3101;SDS011;1561;42.666;23.392;2022-10-18T02:27:04;7.30;;;6.20;;
3101;SDS011;1561;42.666;23.392;2022-10-18T02:29:31;7.70;;;6.50;;
3101;SDS011;1561;42.666;23.392;2022-10-18T02:32:00;9.43;;;7.13;;
3101;SDS011;1561;42.666;23.392;2022-10-18T02:34:34;10.87;;;7.67;;
3101;SDS011;1561;42.666;23.392;2022-10-18T02:37:04;10.93;;;7.40;;
3101;SDS011;1561;42.666;23.392;2022-10-18T02:39:34;11.50;;;8.23;;
3101;SDS011;1561;42.666;23.392;2022-10-18T02:42:02;11.83;;;8.57;;
3101;SDS011;1561;42.666;23.392;2022-10-18T02:44:32;12.97;;;7.60;;
3101;SDS011;1561;42.666;23.392;2022-10-18T02:46:59;8.77;;;7.07;;
3101;SDS011;1561;42.666;23.392;2022-10-18T02:49:25;7.80;;;7.00;;
3101;SDS011;1561;42.666;23.392;2022-10-18T02:51:54;8.00;;;6.87;;
3101;SDS011;1561;42.666;23.392;2022-10-18T02:54:21;9.57;;;6.83;;
3101;SDS011;1561;42.666;23.392;2022-10-18T02:56:48;7.83;;;6.53;;
3101;SDS011;1561;42.666;23.392;2022-10-18T02:59:15;10.43;;;7.70;;
3101;SDS011;1561;42.666;23.392;2022-10-18T03:01:44;11.00;;;7.40;;
3101;SDS011;1561;42.666;23.392;2022-10-18T03:04:11;10.77;;;7.77;;
3101;SDS011;1561;42.666;23.392;2022-10-18T03:06:38;12.20;;;9.00;;
3101;SDS011;1561;42.666;23.392;2022-10-18T03:09:06;12.03;;;8.47;;
3101;SDS011;1561;42.666;23.392;2022-10-18T03:11:33;15.43;;;9.80;;
3101;SDS011;1561;42.666;23.392;2022-10-18T03:14:01;14.20;;;9.50;;
3101;SDS011;1561;42.666;23.392;2022-10-18T03:16:28;18.27;;;11.23;;
3101;SDS011;1561;42.666;23.392;2022-10-18T03:18:55;17.47;;;12.80;;
3101;SDS011;1561;42.666;23.392;2022-10-18T03:21:22;21.00;;;12.80;;
3101;SDS011;1561;42.666;23.392;2022-10-18T03:23:48;20.27;;;13.60;;
3101;SDS011;1561;42.666;23.392;2022-10-18T03:26:17;29.53;;;13.03;;
3101;SDS011;1561;42.666;23.392;2022-10-18T03:28:45;21.10;;;12.17;;
3101;SDS011;1561;42.666;23.392;2022-10-18T03:31:12;17.80;;;11.77;;
3101;SDS011;1561;42.666;23.392;2022-10-18T03:33:40;20.60;;;12.50;;
3101;SDS011;1561;42.666;23.392;2022-10-18T03:36:07;17.07;;;12.60;;
3101;SDS011;1561;42.666;23.392;2022-10-18T03:38:34;19.83;;;11.90;;
3101;SDS011;1561;42.666;23.392;2022-10-18T03:41:01;19.17;;;13.40;;
3101;SDS011;1561;42.666;23.392;2022-10-18T03:43:32;22.30;;;14.57;;
3101;SDS011;1561;42.666;23.392;2022-10-18T03:45:59;21.47;;;14.47;;
3101;SDS011;1561;42.666;23.392;2022-10-18T03:48:26;21.47;;;15.23;;
3101;SDS011;1561;42.666;23.392;2022-10-18T03:50:53;21.33;;;14.00;;
3101;SDS011;1561;42.666;23.392;2022-10-18T03:53:20;22.03;;;13.63;;
3101;SDS011;1561;42.666;23.392;2022-10-18T03:55:49;24.30;;;13.97;;
3101;SDS011;1561;42.666;23.392;2022-10-18T03:58:18;42.03;;;16.27;;
3101;SDS011;1561;42.666;23.392;2022-10-18T04:00:49;23.27;;;15.13;;
3101;SDS011;1561;42.666;23.392;2022-10-18T04:03:16;24.13;;;15.57;;
3101;SDS011;1561;42.666;23.392;2022-10-18T04:05:43;23.53;;;15.70;;
3101;SDS011;1561;42.666;23.392;2022-10-18T04:08:10;26.40;;;15.67;;
3101;SDS011;1561;42.666;23.392;2022-10-18T04:10:38;29.63;;;16.33;;
3101;SDS011;1561;42.666;23.392;2022-10-18T04:13:04;24.57;;;17.67;;
3101;SDS011;1561;42.666;23.392;2022-10-18T04:15:32;27.93;;;17.97;;
3101;SDS011;1561;42.666;23.392;2022-10-18T04:18:00;24.87;;;17.90;;
3101;SDS011;1561;42.666;23.392;2022-10-18T04:20:28;32.17;;;19.13;;
3101;SDS011;1561;42.666;23.392;2022-10-18T04:22:54;29.50;;;19.70;;
3101;SDS011;1561;42.666;23.392;2022-10-18T04:25:21;22.87;;;17.27;;
3101;SDS011;1561;42.666;23.392;2022-10-18T04:27:49;31.20;;;17.33;;
3101;SDS011;1561;42.666;23.392;2022-10-18T04:30:16;21.73;;;16.03;;
3101;SDS011;1561;42.666;23.392;2022-10-18T04:32:42;31.37;;;17.67;;
3101;SDS011;1561;42.666;23.392;2022-10-18T04:35:10;26.00;;;15.53;;
3101;SDS011;1561;42.666;23.392;2022-10-18T04:37:37;25.87;;;16.20;;
3101;SDS011;1561;42.666;23.392;2022-10-18T04:40:04;26.33;;;16.77;;
3101;SDS011;1561;42.666;23.392;2022-10-18T04:42:32;27.03;;;16.20;;
3101;SDS011;1561;42.666;23.392;2022-10-18T04:44:59;22.80;;;16.43;;
3101;SDS011;1561;42.666;23.392;2022-10-18T04:47:25;25.40;;;16.40;;
3101;SDS011;1561;42.666;23.392;2022-10-18T04:49:52;26.83;;;16.73;;
3101;SDS011;1561;42.666;23.392;2022-10-18T04:52:21;40.93;;;17.93;;
3101;SDS011;1561;42.666;23.392;2022-10-18T04:54:49;20.47;;;15.60;;
3101;SDS011;1561;42.666;23.392;2022-10-18T04:57:16;23.37;;;16.10;;
3101;SDS011;1561;42.666;23.392;2022-10-18T04:59:43;26.13;;;15.73;;
3101;SDS011;1561;42.666;23.392;2022-10-18T05:02:10;31.07;;;17.47;;
3101;SDS011;1561;42.666;23.392;2022-10-18T05:04:36;20.97;;;14.47;;
3101;SDS011;1561;42.666;23.392;2022-10-18T05:07:03;25.17;;;14.23;;
3101;SDS011;1561;42.666;23.392;2022-10-18T05:09:32;20.23;;;14.40;;
3101;SDS011;1561;42.666;23.392;2022-10-18T05:11:59;28.33;;;19.07;;
3101;SDS011;1561;42.666;23.392;2022-10-18T05:14:25;24.87;;;16.60;;
3101;SDS011;1561;42.666;23.392;2022-10-18T05:16:54;23.90;;;15.50;;
3101;SDS011;1561;42.666;23.392;2022-10-18T05:19:21;24.33;;;17.60;;
3101;SDS011;1561;42.666;23.392;2022-10-18T05:21:47;27.67;;;20.63;;
3101;SDS011;1561;42.666;23.392;2022-10-18T05:24:15;30.03;;;19.93;;
3101;SDS011;1561;42.666;23.392;2022-10-18T05:26:44;29.47;;;16.83;;
3101;SDS011;1561;42.666;23.392;2022-10-18T05:29:11;23.10;;;16.80;;
3101;SDS011;1561;42.666;23.392;2022-10-18T05:31:38;24.60;;;16.43;;
3101;SDS011;1561;42.666;23.392;2022-10-18T05:34:04;28.97;;;21.90;;
3101;SDS011;1561;42.666;23.392;2022-10-18T05:36:31;25.20;;;17.57;;
3101;SDS011;1561;42.666;23.392;2022-10-18T05:39:01;23.70;;;16.23;;
3101;SDS011;1561;42.666;23.392;2022-10-18T05:41:29;27.53;;;16.90;;
3101;SDS011;1561;42.666;23.392;2022-10-18T05:43:57;24.50;;;14.67;;
3101;SDS011;1561;42.666;23.392;2022-10-18T05:46:23;19.10;;;14.10;;
3101;SDS011;1561;42.666;23.392;2022-10-18T05:48:50;20.87;;;14.50;;
3101;SDS011;1561;42.666;23.392;2022-10-18T05:51:17;19.20;;;13.60;;
3101;SDS011;1561;42.666;23.392;2022-10-18T05:53:44;17.23;;;14.13;;
3101;SDS011;1561;42.666;23.392;2022-10-18T05:56:11;19.90;;;14.00;;
3101;SDS011;1561;42.666;23.392;2022-10-18T05:58:38;14.33;;;12.83;;
3101;SDS011;1561;42.666;23.392;2022-10-18T06:01:08;18.73;;;15.33;;
3101;SDS011;1561;42.666;23.392;2022-10-18T06:03:36;21.47;;;13.80;;
3101;SDS011;1561;42.666;23.392;2022-10-18T06:06:04;22.17;;;13.73;;
3101;SDS011;1561;42.666;23.392;2022-10-18T06:08:35;19.53;;;15.33;;
3101;SDS011;1561;42.666;23.392;2022-10-18T06:11:05;22.60;;;15.20;;
3101;SDS011;1561;42.666;23.392;2022-10-18T06:13:32;18.77;;;14.43;;
3101;SDS011;1561;42.666;23.392;2022-10-18T06:15:59;18.43;;;14.73;;
3101;SDS011;1561;42.666;23.392;2022-10-18T06:18:27;24.80;;;16.40;;
3101;SDS011;1561;42.666;23.392;2022-10-18T06:20:57;18.80;;;16.07;;
3101;SDS011;1561;42.666;23.392;2022-10-18T06:23:25;19.37;;;15.00;;
3101;SDS011;1561;42.666;23.392;2022-10-18T06:25:52;33.23;;;16.87;;
3101;SDS011;1561;42.666;23.392;2022-10-18T06:28:19;16.23;;;14.60;;
3101;SDS011;1561;42.666;23.392;2022-10-18T06:30:46;17.07;;;15.33;;
3101;SDS011;1561;42.666;23.392;2022-10-18T06:33:14;20.90;;;17.00;;
3101;SDS011;1561;42.666;23.392;2022-10-18T06:35:43;17.80;;;15.90;;
3101;SDS011;1561;42.666;23.392;2022-10-18T06:38:18;18.87;;;15.53;;
3101;SDS011;1561;42.666;23.392;2022-10-18T06:40:46;24.30;;;16.37;;
3101;SDS011;1561;42.666;23.392;2022-10-18T06:43:13;17.50;;;15.60;;
3101;SDS011;1561;42.666;23.392;2022-10-18T06:45:39;20.43;;;16.90;;
3101;SDS011;1561;42.666;23.392;2022-10-18T06:48:06;18.63;;;16.63;;
3101;SDS011;1561;42.666;23.392;2022-10-18T06:50:33;23.63;;;17.10;;
3101;SDS011;1561;42.666;23.392;2022-10-18T06:53:01;23.90;;;17.53;;
3101;SDS011;1561;42.666;23.392;2022-10-18T06:55:30;29.48;;;19.08;;
3101;SDS011;1561;42.666;23.392;2022-10-18T06:57:57;25.55;;;18.33;;
3101;SDS011;1561;42.666;23.392;2022-10-18T07:00:25;20.02;;;17.75;;
3101;SDS011;1561;42.666;23.392;2022-10-18T07:02:51;22.67;;;18.30;;
3101;SDS011;1561;42.666;23.392;2022-10-18T07:05:18;28.35;;;17.85;;
3101;SDS011;1561;42.666;23.392;2022-10-18T07:07:47;18.05;;;15.98;;
3101;SDS011;1561;42.666;23.392;2022-10-18T07:10:16;20.17;;;17.13;;
3101;SDS011;1561;42.666;23.392;2022-10-18T07:12:44;22.27;;;14.30;;
3101;SDS011;1561;42.666;23.392;2022-10-18T07:15:11;16.58;;;14.00;;
3101;SDS011;1561;42.666;23.392;2022-10-18T07:17:38;18.30;;;11.07;;
3101;SDS011;1561;42.666;23.392;2022-10-18T07:20:06;13.00;;;11.70;;
3101;SDS011;1561;42.666;23.392;2022-10-18T07:22:35;15.40;;;11.55;;
3101;SDS011;1561;42.666;23.392;2022-10-18T07:25:05;13.10;;;11.80;;
3101;SDS011;1561;42.666;23.392;2022-10-18T07:27:36;13.80;;;12.23;;
3101;SDS011;1561;42.666;23.392;2022-10-18T07:30:05;12.55;;;11.20;;
3101;SDS011;1561;42.666;23.392;2022-10-18T07:32:33;13.20;;;11.82;;
3101;SDS011;1561;42.666;23.392;2022-10-18T07:35:01;13.13;;;10.83;;
3101;SDS011;1561;42.666;23.392;2022-10-18T07:37:29;13.32;;;11.20;;
3101;SDS011;1561;42.666;23.392;2022-10-18T07:39:59;11.75;;;10.55;;
3101;SDS011;1561;42.666;23.392;2022-10-18T07:42:25;11.63;;;10.43;;
3101;SDS011;1561;42.666;23.392;2022-10-18T07:44:53;14.90;;;12.52;;
3101;SDS011;1561;42.666;23.392;2022-10-18T07:47:20;14.20;;;11.77;;
3101;SDS011;1561;42.666;23.392;2022-10-18T07:49:47;15.68;;;12.07;;
3101;SDS011;1561;42.666;23.392;2022-10-18T07:52:14;14.35;;;12.18;;
3101;SDS011;1561;42.666;23.392;2022-10-18T07:54:41;17.17;;;12.70;;
3101;SDS011;1561;42.666;23.392;2022-10-18T07:57:07;17.92;;;12.00;;
3101;SDS011;1561;42.666;23.392;2022-10-18T07:59:35;12.57;;;11.27;;
3101;SDS011;1561;42.666;23.392;2022-10-18T08:02:04;14.25;;;11.45;;
3101;SDS011;1561;42.666;23.392;2022-10-18T08:04:32;14.75;;;11.38;;
3101;SDS011;1561;42.666;23.392;2022-10-18T08:07:00;12.93;;;11.70;;
3101;SDS011;1561;42.666;23.392;2022-10-18T08:09:27;17.95;;;12.48;;
3101;SDS011;1561;42.666;23.392;2022-10-18T08:11:55;11.63;;;10.57;;
3101;SDS011;1561;42.666;23.392;2022-10-18T08:14:22;17.17;;;13.07;;
3101;SDS011;1561;42.666;23.392;2022-10-18T08:16:50;11.30;;;10.18;;
3101;SDS011;1561;42.666;23.392;2022-10-18T08:19:19;11.57;;;10.38;;
3101;SDS011;1561;42.666;23.392;2022-10-18T08:21:45;21.45;;;11.45;;
3101;SDS011;1561;42.666;23.392;2022-10-18T08:24:12;12.35;;;9.73;;
3101;SDS011;1561;42.666;23.392;2022-10-18T08:26:40;12.02;;;10.90;;
3101;SDS011;1561;42.666;23.392;2022-10-18T08:29:07;12.38;;;10.35;;
3101;SDS011;1561;42.666;23.392;2022-10-18T08:31:34;14.13;;;9.88;;
3101;SDS011;1561;42.666;23.392;2022-10-18T08:34:04;13.90;;;11.82;;
3101;SDS011;1561;42.666;23.392;2022-10-18T08:36:32;16.55;;;13.25;;
3101;SDS011;1561;42.666;23.392;2022-10-18T08:38:59;16.63;;;11.68;;
3101;SDS011;1561;42.666;23.392;2022-10-18T08:41:38;15.35;;;11.57;;
3101;SDS011;1561;42.666;23.392;2022-10-18T08:44:19;15.25;;;11.82;;
3101;SDS011;1561;42.666;23.392;2022-10-18T08:46:49;12.23;;;10.95;;
3101;SDS011;1561;42.666;23.392;2022-10-18T08:49:20;15.20;;;10.50;;
3101;SDS011;1561;42.666;23.392;2022-10-18T08:51:54;21.75;;;15.95;;
3101;SDS011;1561;42.666;23.392;2022-10-18T08:54:25;16.35;;;11.15;;
3101;SDS011;1561;42.666;23.392;2022-10-18T08:56:58;16.85;;;12.82;;
3101;SDS011;1561;42.666;23.392;2022-10-18T08:59:28;15.73;;;12.50;;
3101;SDS011;1561;42.666;23.392;2022-10-18T09:02:01;17.20;;;11.95;;
3101;SDS011;1561;42.666;23.392;2022-10-18T09:04:43;13.15;;;10.00;;
3101;SDS011;1561;42.666;23.392;2022-10-18T09:07:22;15.70;;;10.38;;
3101;SDS011;1561;42.666;23.392;2022-10-18T09:10:13;13.38;;;11.15;;
3101;SDS011;1561;42.666;23.392;2022-10-18T09:12:50;11.45;;;10.20;;
3101;SDS011;1561;42.666;23.392;2022-10-18T09:15:31;18.70;;;9.77;;
3101;SDS011;1561;42.666;23.392;2022-10-18T09:18:12;8.88;;;8.02;;
3101;SDS011;1561;42.666;23.392;2022-10-18T09:20:50;11.13;;;8.98;;
3101;SDS011;1561;42.666;23.392;2022-10-18T09:23:25;14.95;;;7.90;;
3101;SDS011;1561;42.666;23.392;2022-10-18T09:26:08;9.50;;;8.50;;
3101;SDS011;1561;42.666;23.392;2022-10-18T09:28:42;8.35;;;7.55;;
3101;SDS011;1561;42.666;23.392;2022-10-18T09:31:28;14.63;;;7.85;;
3101;SDS011;1561;42.666;23.392;2022-10-18T09:34:07;10.02;;;8.73;;
3101;SDS011;1561;42.666;23.392;2022-10-18T09:36:38;9.98;;;6.82;;
3101;SDS011;1561;42.666;23.392;2022-10-18T09:39:10;7.78;;;7.07;;
3101;SDS011;1561;42.666;23.392;2022-10-18T09:41:39;7.95;;;6.72;;
3101;SDS011;1561;42.666;23.392;2022-10-18T09:44:14;8.73;;;6.47;;
3101;SDS011;1561;42.666;23.392;2022-10-18T09:46:47;8.27;;;6.68;;
3101;SDS011;1561;42.666;23.392;2022-10-18T09:49:18;43.90;;;27.27;;
3101;SDS011;1561;42.666;23.392;2022-10-18T09:51:49;14.02;;;8.13;;
3101;SDS011;1561;42.666;23.392;2022-10-18T09:54:33;10.48;;;6.15;;
3101;SDS011;1561;42.666;23.392;2022-10-18T09:57:03;6.32;;;5.72;;
3101;SDS011;1561;42.666;23.392;2022-10-18T09:59:36;6.57;;;5.97;;
3101;SDS011;1561;42.666;23.392;2022-10-18T10:02:05;6.90;;;6.28;;
3101;SDS011;1561;42.666;23.392;2022-10-18T10:04:37;9.90;;;5.63;;
3101;SDS011;1561;42.666;23.392;2022-10-18T10:07:06;6.90;;;6.05;;
3101;SDS011;1561;42.666;23.392;2022-10-18T10:09:39;4.88;;;4.45;;
3101;SDS011;1561;42.666;23.392;2022-10-18T10:12:25;5.80;;;5.20;;
3101;SDS011;1561;42.666;23.392;2022-10-18T10:14:53;5.35;;;4.95;;
3101;SDS011;1561;42.666;23.392;2022-10-18T10:17:31;7.50;;;5.05;;
3101;SDS011;1561;42.666;23.392;2022-10-18T10:19:59;5.80;;;5.30;;
3101;SDS011;1561;42.666;23.392;2022-10-18T10:22:32;6.75;;;4.93;;
3101;SDS011;1561;42.666;23.392;2022-10-18T10:25:02;5.38;;;4.88;;
3101;SDS011;1561;42.666;23.392;2022-10-18T10:27:31;5.95;;;4.70;;
3101;SDS011;1561;42.666;23.392;2022-10-18T10:30:00;5.40;;;4.97;;
3101;SDS011;1561;42.666;23.392;2022-10-18T10:32:29;5.30;;;4.45;;
3101;SDS011;1561;42.666;23.392;2022-10-18T10:34:57;4.82;;;4.45;;
3101;SDS011;1561;42.666;23.392;2022-10-18T10:37:34;4.97;;;4.45;;
3101;SDS011;1561;42.666;23.392;2022-10-18T10:40:19;5.50;;;4.53;;
3101;SDS011;1561;42.666;23.392;2022-10-18T10:42:54;7.22;;;5.18;;
3101;SDS011;1561;42.666;23.392;2022-10-18T10:45:33;11.90;;;5.28;;
3101;SDS011;1561;42.666;23.392;2022-10-18T10:48:07;6.03;;;5.53;;
3101;SDS011;1561;42.666;23.392;2022-10-18T10:53:37;4.47;;;3.92;;
3101;SDS011;1561;42.666;23.392;2022-10-18T10:56:20;5.18;;;4.65;;
3101;SDS011;1561;42.666;23.392;2022-10-18T10:58:50;5.72;;;4.55;;
3101;SDS011;1561;42.666;23.392;2022-10-18T11:01:29;3.97;;;3.67;;
3101;SDS011;1561;42.666;23.392;2022-10-18T11:03:58;4.07;;;3.50;;
3101;SDS011;1561;42.666;23.392;2022-10-18T11:06:43;9.85;;;3.80;;
3101;SDS011;1561;42.666;23.392;2022-10-18T11:09:21;3.65;;;3.35;;
3101;SDS011;1561;42.666;23.392;2022-10-18T11:12:04;3.53;;;3.22;;
3101;SDS011;1561;42.666;23.392;2022-10-18T11:14:43;3.90;;;3.60;;
3101;SDS011;1561;42.666;23.392;2022-10-18T11:17:17;5.53;;;3.50;;
3101;SDS011;1561;42.666;23.392;2022-10-18T11:19:55;4.15;;;3.72;;
3101;SDS011;1561;42.666;23.392;2022-10-18T11:22:31;5.50;;;4.55;;
3101;SDS011;1561;42.666;23.392;2022-10-18T11:25:02;3.92;;;3.53;;
3101;SDS011;1561;42.666;23.392;2022-10-18T11:27:34;3.97;;;3.67;;
3101;SDS011;1561;42.666;23.392;2022-10-18T11:30:13;4.03;;;3.50;;
3101;SDS011;1561;42.666;23.392;2022-10-18T11:32:54;3.70;;;3.40;;
3101;SDS011;1561;42.666;23.392;2022-10-18T11:35:32;9.52;;;7.55;;
3101;SDS011;1561;42.666;23.392;2022-10-18T11:38:15;6.53;;;3.22;;
3101;SDS011;1561;42.666;23.392;2022-10-18T11:41:00;3.50;;;3.20;;
3101;SDS011;1561;42.666;23.392;2022-10-18T11:43:41;3.75;;;2.65;;
3101;SDS011;1561;42.666;23.392;2022-10-18T11:46:18;3.10;;;2.90;;
3101;SDS011;1561;42.666;23.392;2022-10-18T11:49:08;4.70;;;4.20;;
3101;SDS011;1561;42.666;23.392;2022-10-18T11:51:48;2.83;;;2.63;;
3101;SDS011;1561;42.666;23.392;2022-10-18T11:57:24;2.95;;;2.72;;
3101;SDS011;1561;42.666;23.392;2022-10-18T12:00:12;4.60;;;2.65;;
3101;SDS011;1561;42.666;23.392;2022-10-18T12:05:40;2.38;;;2.28;;
3101;SDS011;1561;42.666;23.392;2022-10-18T12:08:11;2.63;;;2.42;;
3101;SDS011;1561;42.666;23.392;2022-10-18T12:10:40;5.68;;;2.30;;
3101;SDS011;1561;42.666;23.392;2022-10-18T12:13:14;2.38;;;2.17;;
3101;SDS011;1561;42.666;23.392;2022-10-18T12:15:48;3.05;;;2.88;;
3101;SDS011;1561;42.666;23.392;2022-10-18T12:18:19;2.78;;;2.58;;
3101;SDS011;1561;42.666;23.392;2022-10-18T12:20:50;2.30;;;2.20;;
3101;SDS011;1561;42.666;23.392;2022-10-18T12:23:19;2.40;;;2.20;;
3101;SDS011;1561;42.666;23.392;2022-10-18T12:25:59;2.45;;;2.10;;
3101;SDS011;1561;42.666;23.392;2022-10-18T12:28:32;2.72;;;1.90;;
3101;SDS011;1561;42.666;23.392;2022-10-18T12:31:05;2.30;;;2.10;;
3101;SDS011;1561;42.666;23.392;2022-10-18T12:33:40;2.35;;;2.20;;
3101;SDS011;1561;42.666;23.392;2022-10-18T12:36:12;2.53;;;2.00;;
3101;SDS011;1561;42.666;23.392;2022-10-18T12:38:53;2.63;;;2.53;;
3101;SDS011;1561;42.666;23.392;2022-10-18T12:41:28;2.60;;;2.40;;
3101;SDS011;1561;42.666;23.392;2022-10-18T12:43:58;5.40;;;2.50;;
3101;SDS011;1561;42.666;23.392;2022-10-18T12:46:42;3.08;;;2.58;;
3101;SDS011;1561;42.666;23.392;2022-10-18T12:49:12;2.97;;;2.75;;
3101;SDS011;1561;42.666;23.392;2022-10-18T12:51:48;2.42;;;2.20;;
3101;SDS011;1561;42.666;23.392;2022-10-18T12:54:17;3.25;;;2.53;;
3101;SDS011;1561;42.666;23.392;2022-10-18T12:56:50;2.15;;;2.05;;
3101;SDS011;1561;42.666;23.392;2022-10-18T13:02:19;2.55;;;2.45;;
3101;SDS011;1561;42.666;23.392;2022-10-18T13:04:48;1.95;;;1.85;;
3101;SDS011;1561;42.666;23.392;2022-10-18T13:07:19;3.58;;;2.10;;
3101;SDS011;1561;42.666;23.392;2022-10-18T13:13:01;2.20;;;2.10;;
3101;SDS011;1561;42.666;23.392;2022-10-18T13:15:58;4.22;;;2.17;;
3101;SDS011;1561;42.666;23.392;2022-10-18T13:18:33;2.30;;;2.10;;
3101;SDS011;1561;42.666;23.392;2022-10-18T13:21:09;2.72;;;2.30;;
3101;SDS011;1561;42.666;23.392;2022-10-18T13:23:55;2.28;;;2.08;;
3101;SDS011;1561;42.666;23.392;2022-10-18T13:26:34;2.67;;;2.40;;
3101;SDS011;1561;42.666;23.392;2022-10-18T13:29:21;2.55;;;2.13;;
3101;SDS011;1561;42.666;23.392;2022-10-18T13:31:57;4.43;;;2.50;;
3101;SDS011;1561;42.666;23.392;2022-10-18T13:34:31;3.65;;;2.28;;
3101;SDS011;1561;42.666;23.392;2022-10-18T13:37:03;2.60;;;2.50;;
3101;SDS011;1561;42.666;23.392;2022-10-18T13:39:31;2.78;;;2.00;;
3101;SDS011;1561;42.666;23.392;2022-10-18T13:44:49;2.22;;;2.10;;
3101;SDS011;1561;42.666;23.392;2022-10-18T13:47:33;2.58;;;2.33;;
3101;SDS011;1561;42.666;23.392;2022-10-18T13:50:21;2.17;;;2.08;;
3101;SDS011;1561;42.666;23.392;2022-10-18T13:52:59;2.30;;;2.20;;
3101;SDS011;1561;42.666;23.392;2022-10-18T13:55:51;2.67;;;2.42;;
3101;SDS011;1561;42.666;23.392;2022-10-18T13:58:29;2.95;;;2.53;;
3101;SDS011;1561;42.666;23.392;2022-10-18T14:01:13;2.83;;;2.70;;
3101;SDS011;1561;42.666;23.392;2022-10-18T14:07:06;5.45;;;2.67;;
3101;SDS011;1561;42.666;23.392;2022-10-18T14:09:42;2.67;;;2.40;;
3101;SDS011;1561;42.666;23.392;2022-10-18T14:12:13;2.72;;;2.53;;
3101;SDS011;1561;42.666;23.392;2022-10-18T14:14:49;2.45;;;2.33;;
3101;SDS011;1561;42.666;23.392;2022-10-18T14:17:23;3.03;;;2.72;;
3101;SDS011;1561;42.666;23.392;2022-10-18T14:19:55;2.58;;;2.25;;
3101;SDS011;1561;42.666;23.392;2022-10-18T14:22:29;2.60;;;2.47;;
3101;SDS011;1561;42.666;23.392;2022-10-18T14:25:01;2.75;;;2.55;;
3101;SDS011;1561;42.666;23.392;2022-10-18T14:27:29;4.93;;;2.85;;
3101;SDS011;1561;42.666;23.392;2022-10-18T14:30:07;15.13;;;11.15;;
3101;SDS011;1561;42.666;23.392;2022-10-18T14:32:41;3.35;;;2.67;;
3101;SDS011;1561;42.666;23.392;2022-10-18T14:35:17;3.17;;;2.97;;
3101;SDS011;1561;42.666;23.392;2022-10-18T14:37:48;2.85;;;2.60;;
3101;SDS011;1561;42.666;23.392;2022-10-18T14:40:27;3.13;;;2.88;;
3101;SDS011;1561;42.666;23.392;2022-10-18T14:42:57;2.92;;;2.72;;
3101;SDS011;1561;42.666;23.392;2022-10-18T14:45:27;2.95;;;2.72;;
3101;SDS011;1561;42.666;23.392;2022-10-18T14:47:54;3.58;;;2.90;;
3101;SDS011;1561;42.666;23.392;2022-10-18T14:50:31;6.15;;;2.80;;
3101;SDS011;1561;42.666;23.392;2022-10-18T14:53:04;8.68;;;2.65;;
3101;SDS011;1561;42.666;23.392;2022-10-18T14:55:32;7.88;;;2.70;;
3101;SDS011;1561;42.666;23.392;2022-10-18T14:58:00;2.95;;;2.60;;
3101;SDS011;1561;42.666;23.392;2022-10-18T15:00:28;4.38;;;3.60;;
3101;SDS011;1561;42.666;23.392;2022-10-18T15:03:01;3.20;;;2.97;;
3101;SDS011;1561;42.666;23.392;2022-10-18T15:05:31;2.97;;;2.70;;
3101;SDS011;1561;42.666;23.392;2022-10-18T15:07:58;2.65;;;2.40;;
3101;SDS011;1561;42.666;23.392;2022-10-18T15:10:29;2.90;;;2.70;;
3101;SDS011;1561;42.666;23.392;2022-10-18T15:13:01;2.75;;;2.45;;
3101;SDS011;1561;42.666;23.392;2022-10-18T15:15:30;2.88;;;2.67;;
3101;SDS011;1561;42.666;23.392;2022-10-18T15:18:00;3.88;;;3.05;;
3101;SDS011;1561;42.666;23.392;2022-10-18T15:20:30;6.88;;;3.58;;
3101;SDS011;1561;42.666;23.392;2022-10-18T15:25:48;3.45;;;3.17;;
3101;SDS011;1561;42.666;23.392;2022-10-18T15:28:21;3.38;;;3.17;;
3101;SDS011;1561;42.666;23.392;2022-10-18T15:30:53;7.30;;;3.63;;
3101;SDS011;1561;42.666;23.392;2022-10-18T15:33:22;3.65;;;3.35;;
3101;SDS011;1561;42.666;23.392;2022-10-18T15:35:52;5.82;;;3.67;;
3101;SDS011;1561;42.666;23.392;2022-10-18T15:38:23;3.88;;;3.58;;